Time;durP1;ratioP1;P1;durP2;ratioP2;P2;SDS_P1;SDS_P2;PMS_P1;PMS_P2;Temp;Humidity;BMP_temperature;BMP_pressure;BME280_temperature;BME280_humidity;BME280_pressure;Samples;Min_cycle;Max_cycle;Signal;HPM_P1;HPM_P2
2021/06/11 00:01:25;;;;;;;11.20;9.87;;;19.70;69.90;;;;;;5024350;28;20451;-47
2021/06/11 00:03:53;;;;;;;13.03;9.10;;;19.60;70.00;;;;;;5030468;28;20451;-47
2021/06/11 00:06:22;;;;;;;10.33;9.40;;;19.60;70.10;;;;;;5029622;28;20469;-47
2021/06/11 00:08:49;;;;;;;9.13;8.33;;;19.60;70.20;;;;;;5031938;28;20451;-48
2021/06/11 00:11:18;;;;;;;9.07;8.27;;;19.50;70.30;;;;;;5027086;28;20451;-47
2021/06/11 00:13:46;;;;;;;9.27;8.43;;;19.50;70.40;;;;;;5029261;28;20444;-47
2021/06/11 00:16:14;;;;;;;9.43;8.53;;;19.50;70.50;;;;;;5026706;28;20463;-47
2021/06/11 00:18:42;;;;;;;10.50;9.23;;;19.40;70.70;;;;;;5025616;28;20450;-47
2021/06/11 00:21:10;;;;;;;10.10;9.10;;;19.40;70.70;;;;;;5023369;28;20460;-47
2021/06/11 00:23:38;;;;;;;10.13;9.30;;;19.30;70.70;;;;;;5030284;28;20518;-47
2021/06/11 00:26:06;;;;;;;9.00;8.20;;;19.30;70.90;;;;;;5026266;28;21176;-47
2021/06/11 00:28:34;;;;;;;9.20;8.50;;;19.30;70.90;;;;;;5027942;28;20475;-47
2021/06/11 00:31:02;;;;;;;9.73;8.87;;;19.20;71.20;;;;;;5025316;28;20487;-47
2021/06/11 00:33:30;;;;;;;10.13;9.17;;;19.20;71.20;;;;;;5024650;28;20463;-47
2021/06/11 00:35:58;;;;;;;11.00;10.10;;;19.20;71.20;;;;;;5028684;28;20451;-47
2021/06/11 00:38:26;;;;;;;9.23;8.33;;;19.10;71.30;;;;;;5027634;28;20475;-47
2021/06/11 00:40:54;;;;;;;9.50;8.60;;;19.10;71.30;;;;;;5028516;28;20467;-48
2021/06/11 00:43:22;;;;;;;9.93;9.13;;;19.00;71.50;;;;;;5026591;28;20943;-48
2021/06/11 00:45:50;;;;;;;10.47;9.37;;;19.00;71.70;;;;;;5027246;28;20466;-48
2021/06/11 00:48:18;;;;;;;10.17;9.27;;;19.10;72.10;;;;;;5028875;28;20459;-47
2021/06/11 00:50:46;;;;;;;10.73;9.77;;;19.10;72.10;;;;;;5028274;28;20484;-47
2021/06/11 00:53:16;;;;;;;9.93;9.03;;;19.00;72.20;;;;;;5028865;28;20460;-47
2021/06/11 00:55:47;;;;;;;10.23;9.30;;;19.00;72.40;;;;;;5028355;28;20467;-47
2021/06/11 00:58:18;;;;;;;10.60;9.60;;;19.00;72.50;;;;;;5025479;28;20456;-47
2021/06/11 01:00:48;;;;;;;10.50;9.33;;;19.00;72.60;;;;;;5030101;28;20460;-47
2021/06/11 01:03:17;;;;;;;10.07;9.27;;;18.90;72.60;;;;;;5028171;28;20885;-48
2021/06/11 01:05:46;;;;;;;10.60;9.60;;;18.90;72.70;;;;;;5024108;28;20464;-47
2021/06/11 01:08:15;;;;;;;11.43;10.50;;;18.90;72.80;;;;;;5023044;28;21011;-47
2021/06/11 01:10:45;;;;;;;10.27;9.20;;;18.90;72.80;;;;;;5029172;28;20483;-47
2021/06/11 01:13:16;;;;;;;10.37;9.47;;;18.90;72.40;;;;;;5024499;28;20463;-47
2021/06/11 01:15:47;;;;;;;9.80;8.97;;;18.90;72.80;;;;;;5028841;28;20455;-48
2021/06/11 01:18:16;;;;;;;10.87;9.77;;;18.90;73.20;;;;;;5022665;28;20451;-47
2021/06/11 01:20:46;;;;;;;10.30;9.33;;;19.00;73.00;;;;;;5024570;28;20932;-47
2021/06/11 01:23:40;;;;;;;12.23;9.03;;;19.00;73.20;;;;;;5026368;28;20480;-48
2021/06/11 01:26:32;;;;;;;10.70;9.60;;;19.00;73.00;;;;;;5017154;28;20468;-47
2021/06/11 01:29:04;;;;;;;10.10;9.10;;;19.00;72.90;;;;;;5024973;28;20991;-47
2021/06/11 01:31:33;;;;;;;10.67;9.80;;;18.90;73.10;;;;;;5023225;28;20444;-48
2021/06/11 01:34:08;;;;;;;10.43;9.43;;;18.80;73.00;;;;;;5025917;28;21012;-48
2021/06/11 01:36:42;;;;;;;9.83;8.90;;;18.70;72.80;;;;;;5029975;28;20935;-48
2021/06/11 01:39:15;;;;;;;10.27;9.47;;;18.70;73.00;;;;;;5024563;28;20947;-48
2021/06/11 01:41:43;;;;;;;9.47;8.67;;;18.70;73.10;;;;;;5025332;28;20464;-47
2021/06/11 01:44:13;;;;;;;9.80;8.90;;;18.60;73.10;;;;;;5022611;28;20518;-47
2021/06/11 01:46:43;;;;;;;10.10;9.20;;;18.60;73.20;;;;;;5027905;28;20474;-47
2021/06/11 01:49:13;;;;;;;10.00;9.07;;;18.60;73.30;;;;;;5023979;28;21137;-47
2021/06/11 01:51:42;;;;;;;10.20;9.30;;;18.60;73.40;;;;;;5027157;28;20808;-47
2021/06/11 01:54:11;;;;;;;10.23;9.17;;;18.50;73.40;;;;;;5027667;28;20468;-48
2021/06/11 01:56:41;;;;;;;10.40;8.83;;;18.50;73.40;;;;;;5026390;28;20464;-48
2021/06/11 01:59:10;;;;;;;9.10;8.20;;;18.50;73.30;;;;;;5026538;28;20459;-47
2021/06/11 02:01:40;;;;;;;9.33;8.53;;;18.50;73.30;;;;;;5025903;28;20448;-47
2021/06/11 02:04:09;;;;;;;10.33;9.40;;;18.50;73.30;;;;;;5026904;28;20467;-48
2021/06/11 02:06:40;;;;;;;14.37;9.63;;;18.40;73.20;;;;;;5024629;28;20464;-47
2021/06/11 02:09:09;;;;;;;11.27;9.70;;;18.40;73.00;;;;;;5025540;28;20459;-47
2021/06/11 02:11:41;;;;;;;10.60;9.60;;;18.40;72.90;;;;;;5027164;28;20840;-47
2021/06/11 02:14:14;;;;;;;9.90;9.10;;;18.30;73.00;;;;;;5028209;28;20483;-48
2021/06/11 02:16:45;;;;;;;10.40;8.47;;;18.30;73.20;;;;;;5026137;28;20458;-48
2021/06/11 02:19:14;;;;;;;10.47;9.43;;;18.30;73.30;;;;;;5022939;28;20455;-48
2021/06/11 02:21:43;;;;;;;9.83;8.93;;;18.20;73.40;;;;;;5027409;28;20470;-47
2021/06/11 02:24:11;;;;;;;9.73;8.80;;;18.20;73.60;;;;;;5028858;28;20455;-47
2021/06/11 02:26:43;;;;;;;10.20;9.30;;;18.30;73.60;;;;;;5025745;28;20471;-47
2021/06/11 02:29:11;;;;;;;13.60;10.60;;;18.30;73.70;;;;;;5025453;28;20479;-47
2021/06/11 02:31:40;;;;;;;10.97;9.10;;;18.20;73.80;;;;;;5022826;28;20451;-48
2021/06/11 02:34:08;;;;;;;11.17;9.90;;;18.20;73.90;;;;;;5026384;28;20460;-47
2021/06/11 02:36:36;;;;;;;10.57;9.63;;;18.20;73.80;;;;;;5023854;28;20874;-47
2021/06/11 02:39:05;;;;;;;10.73;9.83;;;18.10;73.90;;;;;;5023209;28;20486;-46
2021/06/11 02:41:39;;;;;;;10.50;9.60;;;18.10;74.20;;;;;;5026502;28;20505;-45
2021/06/11 02:44:08;;;;;;;9.73;8.93;;;18.10;74.30;;;;;;5028528;28;20449;-46
2021/06/11 02:46:45;;;;;;;11.00;10.00;;;18.00;74.40;;;;;;5026576;28;20484;-46
2021/06/11 02:49:27;;;;;;;10.60;9.70;;;18.00;74.50;;;;;;5026612;28;20452;-46
2021/06/11 02:52:02;;;;;;;10.83;9.80;;;18.00;74.60;;;;;;5030408;28;20464;-46
2021/06/11 02:54:33;;;;;;;11.27;10.17;;;18.00;74.60;;;;;;5030278;28;20776;-46
2021/06/11 02:57:13;;;;;;;11.60;10.50;;;18.00;74.80;;;;;;5029650;28;20479;-46
2021/06/11 02:59:48;;;;;;;11.83;10.83;;;18.10;74.90;;;;;;5028148;28;20494;-46
2021/06/11 03:02:53;;;;;;;11.17;10.13;;;18.10;74.80;;;;;;5027794;28;20466;-45
2021/06/11 03:05:24;;;;;;;11.10;10.10;;;18.00;74.90;;;;;;5021849;28;20489;-46
2021/06/11 03:07:56;;;;;;;10.43;9.53;;;18.00;74.80;;;;;;5028773;28;20465;-46
2021/06/11 03:10:30;;;;;;;9.70;8.80;;;18.00;75.00;;;;;;5026512;28;21050;-46
2021/06/11 03:13:01;;;;;;;10.63;9.73;;;18.00;75.10;;;;;;5029410;28;20458;-45
2021/06/11 03:15:32;;;;;;;11.00;9.97;;;18.00;75.20;;;;;;5032548;28;20451;-46
2021/06/11 03:18:05;;;;;;;11.23;9.87;;;17.90;75.30;;;;;;5028985;28;20459;-45
2021/06/11 03:20:39;;;;;;;10.73;9.73;;;17.90;75.30;;;;;;5027226;28;20464;-45
2021/06/11 03:23:15;;;;;;;12.20;10.90;;;17.90;75.40;;;;;;5029869;28;21005;-46
2021/06/11 03:25:58;;;;;;;9.90;9.10;;;17.90;75.60;;;;;;5028371;28;20795;-46
2021/06/11 03:28:48;;;;;;;10.50;9.60;;;18.10;75.50;;;;;;5029397;28;20475;-46
2021/06/11 03:31:31;;;;;;;11.60;10.60;;;18.00;75.10;;;;;;5026772;28;20495;-46
2021/06/11 03:34:04;;;;;;;9.80;8.93;;;17.90;75.30;;;;;;5027071;28;20882;-46
2021/06/11 03:36:40;;;;;;;10.97;9.87;;;17.80;75.40;;;;;;5027840;28;20460;-46
2021/06/11 03:39:16;;;;;;;9.80;8.80;;;17.80;75.40;;;;;;5029854;28;20463;-46
2021/06/11 03:41:44;;;;;;;10.43;9.50;;;17.80;75.40;;;;;;5029002;28;20479;-46
2021/06/11 03:44:13;;;;;;;11.73;9.60;;;17.80;75.30;;;;;;5027755;28;20451;-46
2021/06/11 03:46:44;;;;;;;10.50;9.60;;;17.70;75.20;;;;;;5031090;28;20971;-46
2021/06/11 03:49:14;;;;;;;10.77;9.80;;;17.70;75.30;;;;;;5028250;28;20538;-46
2021/06/11 03:51:43;;;;;;;9.40;8.50;;;17.70;75.30;;;;;;5024634;28;20491;-45
2021/06/11 03:54:14;;;;;;;9.30;8.50;;;17.70;75.40;;;;;;5027303;28;20815;-46
2021/06/11 03:56:45;;;;;;;10.40;9.33;;;17.70;75.30;;;;;;5012766;28;20467;-46
2021/06/11 03:59:14;;;;;;;9.83;8.90;;;17.70;75.10;;;;;;5025903;28;20458;-46
2021/06/11 04:01:48;;;;;;;8.73;7.93;;;17.70;75.10;;;;;;5027513;28;20493;-46
2021/06/11 04:04:17;;;;;;;9.30;8.50;;;17.70;75.10;;;;;;5027203;28;20460;-46
2021/06/11 04:07:07;;;;;;;9.90;8.90;;;17.70;75.20;;;;;;5028957;28;20465;-45
2021/06/11 04:09:46;;;;;;;9.97;9.07;;;17.70;75.20;;;;;;5028257;28;20467;-46
2021/06/11 04:12:29;;;;;;;10.23;9.23;;;17.70;75.20;;;;;;5028619;28;20828;-46
2021/06/11 04:14:57;;;;;;;9.83;9.03;;;17.70;75.20;;;;;;5027928;28;20450;-46
2021/06/11 04:17:28;;;;;;;10.40;9.50;;;17.80;75.10;;;;;;5029866;28;20973;-46
2021/06/11 04:19:58;;;;;;;10.47;9.47;;;17.70;75.00;;;;;;5010121;28;20455;-46
2021/06/11 04:22:29;;;;;;;10.77;9.87;;;17.80;74.90;;;;;;5027480;28;20824;-46
2021/06/11 04:24:59;;;;;;;9.43;8.53;;;17.80;74.90;;;;;;5028767;28;20456;-46
2021/06/11 04:27:29;;;;;;;11.00;9.60;;;17.80;75.10;;;;;;5026677;28;20455;-45
2021/06/11 04:29:58;;;;;;;10.33;9.40;;;17.80;75.00;;;;;;5027807;28;20825;-46
2021/06/11 04:32:29;;;;;;;9.73;8.83;;;17.80;75.10;;;;;;5028464;28;20837;-46
2021/06/11 04:34:57;;;;;;;10.47;9.20;;;17.80;75.10;;;;;;5025692;28;20464;-45
2021/06/11 04:37:26;;;;;;;11.20;10.10;;;17.80;75.20;;;;;;5028244;28;20467;-46
2021/06/11 04:39:54;;;;;;;11.93;10.67;;;17.90;75.30;;;;;;5028390;28;21621;-46
2021/06/11 04:42:22;;;;;;;10.03;9.00;;;17.90;75.40;;;;;;5026477;28;20471;-46
2021/06/11 04:44:50;;;;;;;10.43;9.43;;;18.00;75.50;;;;;;5026571;28;20455;-46
2021/06/11 04:47:18;;;;;;;10.73;9.73;;;18.00;75.30;;;;;;5030188;28;20453;-46
2021/06/11 04:49:46;;;;;;;12.20;10.97;;;18.10;75.30;;;;;;5026766;28;20844;-46
2021/06/11 04:52:14;;;;;;;11.37;10.37;;;18.10;75.50;;;;;;5026807;28;20490;-46
2021/06/11 04:54:42;;;;;;;11.57;10.47;;;18.20;75.70;;;;;;5025248;28;21050;-46
2021/06/11 04:57:11;;;;;;;10.37;9.40;;;18.30;75.20;;;;;;5029565;28;20467;-46
2021/06/11 04:59:39;;;;;;;12.07;10.90;;;18.30;74.90;;;;;;5026055;28;20813;-45
2021/06/11 05:02:07;;;;;;;10.77;9.67;;;18.30;74.80;;;;;;5023603;28;20803;-46
2021/06/11 05:04:36;;;;;;;12.10;10.50;;;18.40;75.10;;;;;;5027107;28;20461;-46
2021/06/11 05:07:04;;;;;;;10.63;9.63;;;18.40;75.10;;;;;;5028654;28;20805;-45
2021/06/11 05:09:32;;;;;;;11.60;10.50;;;18.40;74.90;;;;;;5026112;28;20459;-46
2021/06/11 05:12:00;;;;;;;11.33;10.47;;;18.50;74.80;;;;;;5025350;28;20495;-46
2021/06/11 05:14:28;;;;;;;10.73;9.63;;;18.50;74.50;;;;;;5025330;28;20456;-46
2021/06/11 05:16:56;;;;;;;10.63;9.73;;;18.60;74.20;;;;;;5029676;28;20451;-46
2021/06/11 05:19:24;;;;;;;10.80;9.70;;;18.60;74.00;;;;;;5029522;28;20469;-46
2021/06/11 05:21:53;;;;;;;10.90;9.80;;;18.60;74.00;;;;;;5024823;28;20462;-46
2021/06/11 05:24:21;;;;;;;9.73;8.83;;;18.80;73.40;;;;;;5026258;28;20833;-46
2021/06/11 05:26:49;;;;;;;10.27;9.30;;;18.80;73.50;;;;;;5031051;28;20467;-46
2021/06/11 05:29:17;;;;;;;11.90;10.07;;;18.80;73.70;;;;;;5026137;28;21079;-46
2021/06/11 05:31:45;;;;;;;10.90;9.80;;;18.90;74.00;;;;;;5026937;28;20971;-46
2021/06/11 05:34:13;;;;;;;11.47;10.50;;;19.00;74.10;;;;;;5024711;28;20566;-46
2021/06/11 05:36:41;;;;;;;10.90;9.93;;;19.10;74.20;;;;;;5026290;28;20459;-46
2021/06/11 05:39:09;;;;;;;10.80;9.80;;;19.10;74.20;;;;;;5024262;28;20511;-46
2021/06/11 05:41:37;;;;;;;13.03;11.73;;;19.10;74.10;;;;;;5028112;28;20999;-46
2021/06/11 05:44:05;;;;;;;10.17;9.30;;;19.20;73.90;;;;;;5026505;28;20462;-45
2021/06/11 05:46:34;;;;;;;11.10;8.80;;;19.20;73.70;;;;;;5026328;28;20459;-46
2021/06/11 05:49:02;;;;;;;11.40;10.30;;;19.30;73.70;;;;;;5023831;28;20874;-46
2021/06/11 05:51:31;;;;;;;11.47;9.70;;;19.40;72.90;;;;;;5026442;28;20486;-46
2021/06/11 05:54:00;;;;;;;9.80;8.80;;;19.50;72.90;;;;;;5027147;28;20470;-46
2021/06/11 05:56:28;;;;;;;10.20;9.20;;;19.60;73.20;;;;;;5028219;28;20525;-46
2021/06/11 05:58:56;;;;;;;9.87;8.97;;;19.60;73.30;;;;;;5025204;28;20471;-46
2021/06/11 06:01:24;;;;;;;9.17;8.37;;;19.70;73.00;;;;;;5024297;28;20461;-46
2021/06/11 06:03:52;;;;;;;10.53;9.47;;;19.80;72.80;;;;;;5022798;28;20882;-46
2021/06/11 06:06:20;;;;;;;9.47;8.57;;;19.80;72.70;;;;;;5025551;28;20483;-45
2021/06/11 06:08:48;;;;;;;9.70;8.80;;;19.90;72.20;;;;;;5027627;28;20466;-46
2021/06/11 06:11:16;;;;;;;9.97;9.07;;;20.00;71.80;;;;;;5024239;28;20487;-46
2021/06/11 06:13:44;;;;;;;10.37;9.30;;;20.10;71.10;;;;;;5026213;28;20994;-46
2021/06/11 06:16:12;;;;;;;10.60;9.60;;;20.20;70.20;;;;;;5022419;28;20458;-46
2021/06/11 06:18:43;;;;;;;10.67;9.20;;;20.30;69.70;;;;;;5025360;28;20462;-46
2021/06/11 06:21:11;;;;;;;9.90;9.00;;;20.30;69.20;;;;;;5023989;28;20459;-46
2021/06/11 06:23:39;;;;;;;9.33;8.53;;;20.40;68.70;;;;;;5024396;28;20474;-45
2021/06/11 06:26:07;;;;;;;9.87;8.70;;;20.50;68.40;;;;;;5025746;28;20470;-46
2021/06/11 06:28:35;;;;;;;9.40;8.50;;;20.60;68.30;;;;;;5023645;28;20486;-45
2021/06/11 06:31:03;;;;;;;10.00;9.00;;;20.80;68.30;;;;;;5020872;28;20496;-45
2021/06/11 06:33:31;;;;;;;9.50;8.60;;;20.90;68.80;;;;;;5022898;28;20474;-45
2021/06/11 06:35:59;;;;;;;10.93;8.57;;;21.00;68.50;;;;;;5024570;28;20459;-45
2021/06/11 06:38:30;;;;;;;10.37;9.30;;;21.10;67.80;;;;;;5024680;28;20463;-45
2021/06/11 06:41:00;;;;;;;10.60;9.40;;;21.10;68.00;;;;;;5023710;28;20467;-46
2021/06/11 06:43:29;;;;;;;10.60;9.50;;;21.20;68.30;;;;;;5020923;28;20471;-45
2021/06/11 06:45:58;;;;;;;10.03;9.03;;;21.30;68.60;;;;;;5025345;28;20499;-44
2021/06/11 06:48:27;;;;;;;10.77;9.77;;;21.50;68.50;;;;;;5023811;28;20800;-44
2021/06/11 06:50:57;;;;;;;11.70;10.70;;;21.60;68.40;;;;;;5027573;28;20491;-44
2021/06/11 06:53:28;;;;;;;10.63;9.63;;;21.70;67.60;;;;;;5013464;28;20925;-44
2021/06/11 06:55:56;;;;;;;10.30;9.30;;;21.90;66.80;;;;;;5023222;28;20440;-44
2021/06/11 06:58:24;;;;;;;11.33;9.00;;;22.00;66.10;;;;;;5020452;28;20456;-44
2021/06/11 07:00:52;;;;;;;13.53;9.43;;;22.20;66.00;;;;;;5026970;28;20986;-44
2021/06/11 07:03:31;;;;;;;9.63;8.67;;;22.30;66.00;;;;;;5023571;28;21010;-45
2021/06/11 07:05:59;;;;;;;9.03;8.23;;;22.50;65.90;;;;;;5028613;28;20979;-46
2021/06/11 07:08:31;;;;;;;10.83;8.93;;;22.60;65.70;;;;;;5026651;28;20932;-45
2021/06/11 07:11:02;;;;;;;9.40;8.60;;;22.70;64.70;;;;;;5013114;28;20487;-46
2021/06/11 07:13:32;;;;;;;9.97;8.80;;;22.90;63.20;;;;;;5007987;28;20447;-46
2021/06/11 07:16:04;;;;;;;10.07;8.80;;;23.00;62.50;;;;;;5023678;28;20463;-46
2021/06/11 07:18:32;;;;;;;9.30;8.50;;;23.10;63.10;;;;;;5026946;28;20457;-46
2021/06/11 07:21:01;;;;;;;8.83;8.13;;;23.30;63.10;;;;;;5023685;28;20448;-45
2021/06/11 07:23:32;;;;;;;8.33;7.43;;;23.50;62.70;;;;;;5025197;28;20521;-45
2021/06/11 07:26:05;;;;;;;9.40;8.60;;;23.60;62.80;;;;;;5022923;28;20502;-46
2021/06/11 07:28:38;;;;;;;11.00;8.80;;;23.80;61.80;;;;;;5024619;28;20471;-46
2021/06/11 07:31:07;;;;;;;8.47;7.60;;;23.90;60.50;;;;;;5023250;28;20485;-46
2021/06/11 07:33:35;;;;;;;9.30;8.40;;;24.10;60.20;;;;;;5021384;28;20448;-46
2021/06/11 07:36:03;;;;;;;9.43;8.53;;;24.20;60.30;;;;;;5029639;28;20463;-46
2021/06/11 07:38:34;;;;;;;8.90;8.00;;;24.30;60.10;;;;;;5029383;28;20446;-46
2021/06/11 07:41:05;;;;;;;8.80;8.00;;;24.50;58.50;;;;;;5030211;28;20455;-46
2021/06/11 07:43:33;;;;;;;8.07;7.37;;;24.60;57.70;;;;;;5028557;28;20461;-46
2021/06/11 07:46:01;;;;;;;8.10;7.30;;;24.80;57.10;;;;;;5024697;28;20443;-45
2021/06/11 07:48:30;;;;;;;8.43;7.63;;;25.00;57.10;;;;;;5031480;28;20520;-46
2021/06/11 07:51:03;;;;;;;8.10;7.50;;;25.10;56.90;;;;;;5028241;28;20487;-46
2021/06/11 07:53:31;;;;;;;12.23;7.73;;;25.30;55.70;;;;;;5030442;28;20445;-46
2021/06/11 07:55:59;;;;;;;8.40;7.67;;;25.40;55.70;;;;;;5027843;28;20980;-46
2021/06/11 07:58:27;;;;;;;7.80;7.10;;;25.50;54.90;;;;;;5028082;28;20509;-46
2021/06/11 08:00:58;;;;;;;8.20;7.50;;;25.60;55.00;;;;;;5029626;28;20461;-46
2021/06/11 08:03:28;;;;;;;7.67;6.87;;;25.80;54.50;;;;;;5026788;28;20959;-46
2021/06/11 08:05:59;;;;;;;10.50;6.70;;;25.90;53.90;;;;;;5029260;28;20828;-46
2021/06/11 08:08:27;;;;;;;7.27;6.57;;;26.00;53.30;;;;;;5029845;28;20801;-46
2021/06/11 08:10:55;;;;;;;7.97;7.37;;;26.20;54.00;;;;;;5026864;28;20457;-46
2021/06/11 08:13:23;;;;;;;8.20;7.20;;;26.30;54.00;;;;;;5029023;28;20501;-46
2021/06/11 08:15:51;;;;;;;8.73;7.83;;;26.40;53.80;;;;;;5033931;28;20455;-46
2021/06/11 08:18:22;;;;;;;9.03;6.87;;;26.50;52.90;;;;;;5027524;28;20508;-46
2021/06/11 08:20:50;;;;;;;7.00;6.40;;;26.60;53.30;;;;;;5033127;28;20443;-45
2021/06/11 08:23:18;;;;;;;7.53;6.63;;;26.70;53.10;;;;;;5012013;28;20825;-46
2021/06/11 08:25:46;;;;;;;9.23;6.33;;;26.90;52.60;;;;;;5034056;28;20449;-45
2021/06/11 08:28:15;;;;;;;7.20;6.60;;;27.00;52.40;;;;;;5027049;28;20470;-46
2021/06/11 08:30:45;;;;;;;8.27;7.30;;;27.20;52.50;;;;;;5028598;28;20919;-45
2021/06/11 08:33:14;;;;;;;7.57;6.87;;;27.30;52.20;;;;;;5032486;28;20228;-46
2021/06/11 08:35:42;;;;;;;8.93;7.57;;;27.40;51.90;;;;;;5030867;28;20458;-46
2021/06/11 08:38:12;;;;;;;7.57;6.87;;;27.50;51.40;;;;;;5030489;28;20508;-46
2021/06/11 08:40:41;;;;;;;9.17;7.60;;;27.60;50.90;;;;;;5028813;28;20436;-46
2021/06/11 08:43:09;;;;;;;7.77;7.07;;;27.70;51.10;;;;;;5018613;28;20464;-45
2021/06/11 08:45:37;;;;;;;7.47;6.80;;;27.80;51.40;;;;;;5031821;28;20216;-46
2021/06/11 08:48:06;;;;;;;7.50;6.90;;;27.70;51.20;;;;;;5027498;28;20461;-46
2021/06/11 08:50:35;;;;;;;6.73;6.13;;;27.70;51.60;;;;;;5031116;28;21119;-46
2021/06/11 08:53:05;;;;;;;6.20;5.60;;;27.70;52.30;;;;;;5028507;28;22362;-46
2021/06/11 08:55:36;;;;;;;7.73;7.00;;;27.70;52.00;;;;;;5025601;28;20452;-45
2021/06/11 08:58:04;;;;;;;8.23;7.13;;;27.80;51.50;;;;;;5013021;28;20444;-45
2021/06/11 09:00:33;;;;;;;7.60;6.90;;;27.80;52.10;;;;;;5029012;28;20455;-46
2021/06/11 09:03:19;;;;;;;6.50;6.00;;;27.80;51.70;;;;;;5024735;28;20541;-45
2021/06/11 09:06:05;;;;;;;10.00;6.50;;;27.80;51.20;;;;;;5029764;28;20452;-46
2021/06/11 09:08:36;;;;;;;6.30;5.80;;;27.90;51.10;;;;;;5028401;28;20478;-46
2021/06/11 09:11:19;;;;;;;5.97;5.47;;;27.90;50.80;;;;;;5030838;28;20462;-45
2021/06/11 09:13:54;;;;;;;5.53;4.90;;;27.90;49.30;;;;;;5027284;28;20832;-46
2021/06/11 09:16:25;;;;;;;5.67;5.03;;;28.00;48.20;;;;;;5027834;28;20522;-45
2021/06/11 09:18:59;;;;;;;5.70;5.20;;;28.20;48.20;;;;;;5028427;28;20226;-45
2021/06/11 09:21:42;;;;;;;5.63;5.13;;;28.20;47.00;;;;;;5027949;28;21016;-45
2021/06/11 09:24:27;;;;;;;6.60;4.60;;;28.30;46.80;;;;;;5027070;28;20478;-45
2021/06/11 09:27:03;;;;;;;5.30;4.90;;;28.60;48.50;;;;;;5025356;28;21535;-45
2021/06/11 09:29:31;;;;;;;6.57;5.97;;;28.90;47.50;;;;;;5022140;28;20946;-45
2021/06/11 09:32:20;;;;;;;6.33;5.73;;;29.20;46.20;;;;;;5024362;28;20742;-46
2021/06/11 09:34:51;;;;;;;6.33;5.80;;;29.50;46.30;;;;;;5026050;28;20213;-47
2021/06/11 09:37:37;;;;;;;5.60;5.10;;;29.80;46.30;;;;;;5026657;28;20212;-47
2021/06/11 09:40:13;;;;;;;6.67;6.17;;;30.10;45.20;;;;;;5022003;28;20672;-46
2021/06/11 09:42:44;;;;;;;8.50;5.97;;;30.40;45.30;;;;;;5007568;28;20661;-45
2021/06/11 09:45:20;;;;;;;7.70;6.25;;;30.80;44.80;;;;;;5010255;28;20207;-46
2021/06/11 09:47:53;;;;;;;5.68;5.22;;;31.20;44.10;;;;;;5017675;28;20255;-46
2021/06/11 09:50:36;;;;;;;6.40;5.80;;;31.40;44.30;;;;;;5022370;28;20200;-46
2021/06/11 09:53:05;;;;;;;6.20;5.40;;;31.40;44.30;;;;;;5021348;28;20240;-47
2021/06/11 09:55:35;;;;;;;7.05;5.38;;;31.40;44.00;;;;;;5026137;28;20300;-46
2021/06/11 09:58:22;;;;;;;6.57;5.43;;;31.10;44.50;;;;;;5024896;28;20209;-46
2021/06/11 10:00:54;;;;;;;5.38;4.88;;;30.80;44.60;;;;;;5026521;28;20212;-46
2021/06/11 10:03:27;;;;;;;5.15;4.75;;;30.50;45.00;;;;;;5022202;28;20201;-46
2021/06/11 10:06:01;;;;;;;5.85;5.22;;;30.30;45.80;;;;;;5023977;28;20211;-46
2021/06/11 10:08:31;;;;;;;6.45;5.85;;;30.20;46.00;;;;;;5025449;28;20204;-46
2021/06/11 10:11:02;;;;;;;8.05;5.63;;;30.00;45.70;;;;;;5027077;28;20196;-45
2021/06/11 10:13:30;;;;;;;5.60;5.07;;;29.90;46.10;;;;;;5028244;28;20231;-46
2021/06/11 10:16:04;;;;;;;6.73;6.03;;;29.70;46.10;;;;;;5029018;28;20211;-46
2021/06/11 10:18:32;;;;;;;5.87;5.37;;;29.50;46.50;;;;;;5022223;28;20203;-45
2021/06/11 10:21:02;;;;;;;5.33;4.67;;;29.30;47.20;;;;;;5005106;28;20263;-45
2021/06/11 10:23:32;;;;;;;5.77;5.20;;;29.10;47.80;;;;;;5026757;28;20207;-46
2021/06/11 10:26:02;;;;;;;5.70;5.20;;;28.90;48.30;;;;;;5006533;28;20641;-44
2021/06/11 10:28:38;;;;;;;7.60;5.90;;;28.80;48.20;;;;;;5021771;28;20238;-46
2021/06/11 10:31:09;;;;;;;5.07;4.70;;;28.60;48.60;;;;;;5001816;28;20231;-46
2021/06/11 10:33:46;;;;;;;5.70;5.10;;;28.60;48.40;;;;;;5023528;28;20227;-45
2021/06/11 10:36:27;;;;;;;5.30;4.80;;;28.50;48.50;;;;;;5012958;28;20292;-46
2021/06/11 10:39:01;;;;;;;5.50;4.70;;;28.50;48.80;;;;;;5027212;28;20297;-46
2021/06/11 10:41:57;;;;;;;5.27;4.80;;;28.40;48.60;;;;;;5026257;28;20459;-45
2021/06/11 10:44:34;;;;;;;5.73;4.80;;;28.30;48.00;;;;;;5007984;28;20200;-46
2021/06/11 10:47:18;;;;;;;5.23;4.50;;;28.20;47.50;;;;;;5022751;28;20644;-46
2021/06/11 10:49:59;;;;;;;4.57;4.07;;;28.20;47.30;;;;;;5028322;28;20652;-46
2021/06/11 10:52:50;;;;;;;4.03;3.30;;;28.20;47.50;;;;;;5020376;28;20490;-46
2021/06/11 10:55:19;;;;;;;5.27;4.73;;;28.20;47.60;;;;;;5025955;28;20296;-44
2021/06/11 10:57:52;;;;;;;5.90;3.90;;;28.20;48.10;;;;;;5029669;28;20208;-44
2021/06/11 11:00:27;;;;;;;4.77;4.37;;;28.10;48.40;;;;;;5024663;28;20236;-44
2021/06/11 11:02:58;;;;;;;6.60;4.23;;;28.10;49.80;;;;;;5029394;28;20466;-44
2021/06/11 11:05:27;;;;;;;4.43;4.03;;;28.00;48.20;;;;;;5028468;28;20216;-44
2021/06/11 11:07:56;;;;;;;4.00;3.60;;;27.90;47.70;;;;;;5029579;28;20438;-44
2021/06/11 11:10:45;;;;;;;4.33;4.03;;;27.90;49.30;;;;;;5036596;28;20481;-45
2021/06/11 11:13:27;;;;;;;4.47;4.10;;;27.80;50.20;;;;;;5036568;28;20502;-45
2021/06/11 11:16:00;;;;;;;3.80;3.50;;;27.80;49.90;;;;;;5020344;28;20457;-45
2021/06/11 11:18:34;;;;;;;4.83;4.07;;;27.70;50.80;;;;;;5037097;28;20454;-44
2021/06/11 11:21:31;;;;;;;5.77;4.17;;;27.60;50.00;;;;;;5028872;28;20443;-44
2021/06/11 11:24:05;;;;;;;4.63;4.23;;;27.60;50.50;;;;;;5014251;28;20470;-44
2021/06/11 11:26:46;;;;;;;3.90;3.60;;;27.60;49.90;;;;;;5031481;28;20952;-44
2021/06/11 11:29:18;;;;;;;4.30;4.00;;;27.60;50.30;;;;;;5015821;28;20481;-44
2021/06/11 11:31:48;;;;;;;4.07;3.77;;;27.50;49.90;;;;;;5030952;28;20829;-44
2021/06/11 11:34:16;;;;;;;4.60;4.20;;;27.50;50.90;;;;;;5032955;28;20451;-44
2021/06/11 11:36:45;;;;;;;4.10;3.70;;;27.60;50.60;;;;;;5032143;28;20454;-44
2021/06/11 11:39:14;;;;;;;4.40;4.10;;;27.60;49.50;;;;;;5031912;28;20447;-46
2021/06/11 11:41:42;;;;;;;4.33;3.73;;;27.60;50.20;;;;;;5028554;28;20466;-45
2021/06/11 11:44:14;;;;;;;5.37;4.07;;;27.60;50.20;;;;;;5035966;28;20461;-43
2021/06/11 11:46:51;;;;;;;3.80;3.57;;;27.70;49.70;;;;;;5034700;28;20442;-46
2021/06/11 11:49:20;;;;;;;5.70;4.13;;;27.80;50.70;;;;;;5012094;28;20817;-45
2021/06/11 11:51:49;;;;;;;5.63;4.60;;;27.80;50.40;;;;;;5031185;28;20450;-44
2021/06/11 11:54:17;;;;;;;4.90;4.60;;;27.80;50.10;;;;;;5032734;28;20964;-46
2021/06/11 11:56:45;;;;;;;5.40;4.27;;;27.80;49.70;;;;;;5031241;28;20955;-44
2021/06/11 11:59:13;;;;;;;4.77;4.40;;;27.90;50.10;;;;;;5030501;28;20454;-46
2021/06/11 12:01:43;;;;;;;3.80;3.50;;;28.10;49.70;;;;;;5028392;28;20955;-44
2021/06/11 12:04:14;;;;;;;4.10;3.70;;;28.10;48.40;;;;;;5031868;28;20201;-44
2021/06/11 12:06:42;;;;;;;3.30;3.10;;;28.10;48.30;;;;;;5028261;28;20455;-46
2021/06/11 12:09:11;;;;;;;3.80;3.50;;;28.10;48.80;;;;;;5028963;28;20485;-44
2021/06/11 12:11:39;;;;;;;3.57;2.83;;;28.00;49.20;;;;;;5018902;28;20209;-44
2021/06/11 12:14:08;;;;;;;3.63;3.33;;;28.00;47.60;;;;;;5032614;28;20228;-44
2021/06/11 12:16:37;;;;;;;4.77;3.50;;;27.90;47.90;;;;;;5018820;28;20201;-44
2021/06/11 12:19:07;;;;;;;3.23;2.93;;;27.80;47.60;;;;;;5018414;28;20502;-44
2021/06/11 12:21:35;;;;;;;4.20;2.90;;;27.80;47.50;;;;;;5026649;28;20454;-44
2021/06/11 12:24:04;;;;;;;7.60;3.80;;;27.70;48.20;;;;;;5030900;28;20958;-44
2021/06/11 12:26:32;;;;;;;6.00;3.30;;;27.70;49.30;;;;;;5033084;28;20204;-46
2021/06/11 12:29:01;;;;;;;4.20;3.80;;;27.70;50.60;;;;;;5030637;28;20532;-44
2021/06/11 12:31:33;;;;;;;5.97;4.33;;;27.80;51.90;;;;;;5030617;28;20811;-45
2021/06/11 12:34:01;;;;;;;3.80;3.50;;;27.80;49.90;;;;;;5030027;28;20486;-44
2021/06/11 12:36:29;;;;;;;3.40;3.20;;;27.80;50.70;;;;;;5032264;28;20452;-44
2021/06/11 12:39:00;;;;;;;4.13;3.83;;;27.90;49.30;;;;;;5028352;28;20446;-44
2021/06/11 12:41:37;;;;;;;5.07;4.07;;;27.90;50.30;;;;;;5031039;28;21226;-44
2021/06/11 12:44:19;;;;;;;3.60;3.30;;;27.90;48.60;;;;;;5032899;28;20457;-44
2021/06/11 12:46:51;;;;;;;3.50;3.20;;;27.90;47.80;;;;;;5028397;28;20855;-46
2021/06/11 12:49:21;;;;;;;4.60;3.10;;;27.90;48.70;;;;;;5028565;28;20674;-46
2021/06/11 12:51:50;;;;;;;3.90;3.60;;;27.80;49.30;;;;;;5028726;28;20538;-44
2021/06/11 12:54:18;;;;;;;3.00;2.80;;;27.80;48.60;;;;;;5006676;28;20479;-46
2021/06/11 12:56:46;;;;;;;3.40;3.20;;;27.80;49.50;;;;;;5030655;28;20452;-46
2021/06/11 12:59:14;;;;;;;3.97;3.67;;;27.80;49.90;;;;;;5030298;28;20455;-46
2021/06/11 13:01:42;;;;;;;4.27;3.20;;;27.90;49.90;;;;;;5008187;28;20463;-46
2021/06/11 13:04:11;;;;;;;5.53;3.10;;;28.00;48.00;;;;;;5024962;28;20671;-46